KFCH

Fresno Chandler Executive Airport

Fresno, California, USA
METAR KFCH 230915Z AUTO 00000KT 10SM CLR 14/09 A2993 RMK A01
Observed Flight Rules
Oct-23 @ 09:15 UTC (27 minutes ago) Visual Flight Rules
Visibility Clouds
10 miles
  • Clear skies
Temperatures Readings
Current 14°C / 57°F
Dewpoint 9°C / 48°F
Humidity 72%
Altimeter 29.93" Hg
Pressure 1014 hPa
Elevation 85
METAR KFCH 230915Z AUTO 00000KT 10SM CLR 14/09 A2993 RMK A01
Observed Flight Rules
Oct-23 @ 09:15 UTC
(27 minutes ago)
VFR
Clouds
  • Clear skies
Temperature Dewpoint
14°C / 57°F 9°C / 48°F
Humidity Altimeter Pressure
72% 29.93" Hg 1014 hPa